sensor_id;sensor_type;location;lat;lon;timestamp;P1;durP1;ratioP1;P2;durP2;ratioP2
69256;SDS011;56376;53.356;-1.748;2023-01-08T00:00:56;6.87;;;2.00;;
69256;SDS011;56376;53.356;-1.748;2023-01-08T00:03:22;4.30;;;2.13;;
69256;SDS011;56376;53.356;-1.748;2023-01-08T00:05:47;11.77;;;3.23;;
69256;SDS011;56376;53.356;-1.748;2023-01-08T00:08:13;7.40;;;2.13;;
69256;SDS011;56376;53.356;-1.748;2023-01-08T00:10:38;14.03;;;2.43;;
69256;SDS011;56376;53.356;-1.748;2023-01-08T00:13:04;6.83;;;2.30;;
69256;SDS011;56376;53.356;-1.748;2023-01-08T00:15:34;8.35;;;2.67;;
69256;SDS011;56376;53.356;-1.748;2023-01-08T00:17:59;7.30;;;2.33;;
69256;SDS011;56376;53.356;-1.748;2023-01-08T00:20:25;7.17;;;2.20;;
69256;SDS011;56376;53.356;-1.748;2023-01-08T00:22:51;8.70;;;2.27;;
69256;SDS011;56376;53.356;-1.748;2023-01-08T00:25:16;8.00;;;2.60;;
69256;SDS011;56376;53.356;-1.748;2023-01-08T00:27:43;11.93;;;3.15;;
69256;SDS011;56376;53.356;-1.748;2023-01-08T00:30:09;6.63;;;2.10;;
69256;SDS011;56376;53.356;-1.748;2023-01-08T00:32:35;7.43;;;2.27;;
69256;SDS011;56376;53.356;-1.748;2023-01-08T00:35:01;10.63;;;2.57;;
69256;SDS011;56376;53.356;-1.748;2023-01-08T00:37:27;6.30;;;2.60;;
69256;SDS011;56376;53.356;-1.748;2023-01-08T00:39:53;11.97;;;2.70;;
69256;SDS011;56376;53.356;-1.748;2023-01-08T00:42:19;10.25;;;3.30;;
69256;SDS011;56376;53.356;-1.748;2023-01-08T00:44:44;11.77;;;3.00;;
69256;SDS011;56376;53.356;-1.748;2023-01-08T00:47:10;8.87;;;2.90;;
69256;SDS011;56376;53.356;-1.748;2023-01-08T00:49:35;8.88;;;3.00;;
69256;SDS011;56376;53.356;-1.748;2023-01-08T00:52:01;10.03;;;2.73;;
69256;SDS011;56376;53.356;-1.748;2023-01-08T00:54:26;9.77;;;2.83;;
69256;SDS011;56376;53.356;-1.748;2023-01-08T00:56:53;8.37;;;2.60;;
69256;SDS011;56376;53.356;-1.748;2023-01-08T00:59:19;5.72;;;1.98;;
69256;SDS011;56376;53.356;-1.748;2023-01-08T01:01:45;5.93;;;2.13;;
69256;SDS011;56376;53.356;-1.748;2023-01-08T01:04:11;7.37;;;2.83;;
69256;SDS011;56376;53.356;-1.748;2023-01-08T01:06:36;13.43;;;3.60;;
69256;SDS011;56376;53.356;-1.748;2023-01-08T01:09:02;8.23;;;2.43;;
69256;SDS011;56376;53.356;-1.748;2023-01-08T01:11:27;11.97;;;3.33;;
69256;SDS011;56376;53.356;-1.748;2023-01-08T01:13:54;12.20;;;3.00;;
69256;SDS011;56376;53.356;-1.748;2023-01-08T01:16:20;10.00;;;2.88;;
69256;SDS011;56376;53.356;-1.748;2023-01-08T01:18:46;6.60;;;3.03;;
69256;SDS011;56376;53.356;-1.748;2023-01-08T01:21:22;9.20;;;2.30;;
69256;SDS011;56376;53.356;-1.748;2023-01-08T01:23:52;6.77;;;2.57;;
69256;SDS011;56376;53.356;-1.748;2023-01-08T01:26:21;12.73;;;3.40;;
69256;SDS011;56376;53.356;-1.748;2023-01-08T01:28:48;10.60;;;2.78;;
69256;SDS011;56376;53.356;-1.748;2023-01-08T01:31:16;10.30;;;3.40;;
69256;SDS011;56376;53.356;-1.748;2023-01-08T01:33:43;9.53;;;2.67;;
69256;SDS011;56376;53.356;-1.748;2023-01-08T01:36:10;17.25;;;3.28;;
69256;SDS011;56376;53.356;-1.748;2023-01-08T01:38:36;11.93;;;3.10;;
69256;SDS011;56376;53.356;-1.748;2023-01-08T01:41:02;10.53;;;3.17;;
69256;SDS011;56376;53.356;-1.748;2023-01-08T01:43:38;7.80;;;2.40;;
69256;SDS011;56376;53.356;-1.748;2023-01-08T01:46:15;8.67;;;2.33;;
69256;SDS011;56376;53.356;-1.748;2023-01-08T01:48:42;8.07;;;2.27;;
69256;SDS011;56376;53.356;-1.748;2023-01-08T01:51:07;12.53;;;4.03;;
69256;SDS011;56376;53.356;-1.748;2023-01-08T01:53:33;5.10;;;1.93;;
69256;SDS011;56376;53.356;-1.748;2023-01-08T01:56:00;7.97;;;3.07;;
69256;SDS011;56376;53.356;-1.748;2023-01-08T01:58:29;9.03;;;2.70;;
69256;SDS011;56376;53.356;-1.748;2023-01-08T02:00:56;14.80;;;3.40;;
69256;SDS011;56376;53.356;-1.748;2023-01-08T02:03:25;7.33;;;2.87;;
69256;SDS011;56376;53.356;-1.748;2023-01-08T02:08:46;11.33;;;3.87;;
69256;SDS011;56376;53.356;-1.748;2023-01-08T02:14:36;14.67;;;3.40;;
69256;SDS011;56376;53.356;-1.748;2023-01-08T02:17:14;11.40;;;2.90;;
69256;SDS011;56376;53.356;-1.748;2023-01-08T02:19:45;12.90;;;2.73;;
69256;SDS011;56376;53.356;-1.748;2023-01-08T02:22:36;8.60;;;2.55;;
69256;SDS011;56376;53.356;-1.748;2023-01-08T02:25:10;9.03;;;3.70;;
69256;SDS011;56376;53.356;-1.748;2023-01-08T02:27:39;9.07;;;3.40;;
69256;SDS011;56376;53.356;-1.748;2023-01-08T02:30:08;7.43;;;2.33;;
69256;SDS011;56376;53.356;-1.748;2023-01-08T02:32:38;14.33;;;3.70;;
69256;SDS011;56376;53.356;-1.748;2023-01-08T02:35:06;11.83;;;3.67;;
69256;SDS011;56376;53.356;-1.748;2023-01-08T02:37:33;9.40;;;2.57;;
69256;SDS011;56376;53.356;-1.748;2023-01-08T02:47:53;7.03;;;2.45;;
69256;SDS011;56376;53.356;-1.748;2023-01-08T02:50:28;10.00;;;2.40;;
69256;SDS011;56376;53.356;-1.748;2023-01-08T02:53:15;5.83;;;2.23;;
69256;SDS011;56376;53.356;-1.748;2023-01-08T02:58:11;7.57;;;2.53;;
69256;SDS011;56376;53.356;-1.748;2023-01-08T03:00:38;7.70;;;2.03;;
69256;SDS011;56376;53.356;-1.748;2023-01-08T03:03:10;5.93;;;1.97;;
69256;SDS011;56376;53.356;-1.748;2023-01-08T03:05:45;7.27;;;2.60;;
69256;SDS011;56376;53.356;-1.748;2023-01-08T03:08:14;9.40;;;2.90;;
69256;SDS011;56376;53.356;-1.748;2023-01-08T03:10:42;7.97;;;2.10;;
69256;SDS011;56376;53.356;-1.748;2023-01-08T03:13:13;8.83;;;2.60;;
69256;SDS011;56376;53.356;-1.748;2023-01-08T03:15:49;5.23;;;2.37;;
69256;SDS011;56376;53.356;-1.748;2023-01-08T03:18:20;5.87;;;2.00;;
69256;SDS011;56376;53.356;-1.748;2023-01-08T03:20:51;6.13;;;2.13;;
69256;SDS011;56376;53.356;-1.748;2023-01-08T03:23:17;3.08;;;1.27;;
69256;SDS011;56376;53.356;-1.748;2023-01-08T03:25:46;3.90;;;1.77;;
69256;SDS011;56376;53.356;-1.748;2023-01-08T03:28:15;6.97;;;2.07;;
69256;SDS011;56376;53.356;-1.748;2023-01-08T03:30:44;3.23;;;1.80;;
69256;SDS011;56376;53.356;-1.748;2023-01-08T03:33:11;5.57;;;2.00;;
69256;SDS011;56376;53.356;-1.748;2023-01-08T03:35:39;5.40;;;1.63;;
69256;SDS011;56376;53.356;-1.748;2023-01-08T03:38:10;6.88;;;1.83;;
69256;SDS011;56376;53.356;-1.748;2023-01-08T03:40:42;4.57;;;1.80;;
69256;SDS011;56376;53.356;-1.748;2023-01-08T03:43:10;4.33;;;1.50;;
69256;SDS011;56376;53.356;-1.748;2023-01-08T03:45:36;5.70;;;1.87;;
69256;SDS011;56376;53.356;-1.748;2023-01-08T03:48:06;4.67;;;1.73;;
69256;SDS011;56376;53.356;-1.748;2023-01-08T03:50:33;6.33;;;1.57;;
69256;SDS011;56376;53.356;-1.748;2023-01-08T03:52:59;4.73;;;1.80;;
69256;SDS011;56376;53.356;-1.748;2023-01-08T03:55:24;9.07;;;2.40;;
69256;SDS011;56376;53.356;-1.748;2023-01-08T03:57:50;9.53;;;2.87;;
69256;SDS011;56376;53.356;-1.748;2023-01-08T04:00:15;8.23;;;2.03;;
69256;SDS011;56376;53.356;-1.748;2023-01-08T04:02:41;5.43;;;1.80;;
69256;SDS011;56376;53.356;-1.748;2023-01-08T04:05:07;4.43;;;2.10;;
69256;SDS011;56376;53.356;-1.748;2023-01-08T04:07:33;5.50;;;1.87;;
69256;SDS011;56376;53.356;-1.748;2023-01-08T04:09:58;7.40;;;2.27;;
69256;SDS011;56376;53.356;-1.748;2023-01-08T04:12:23;4.90;;;1.90;;
69256;SDS011;56376;53.356;-1.748;2023-01-08T04:14:49;12.27;;;2.60;;
69256;SDS011;56376;53.356;-1.748;2023-01-08T04:17:14;4.30;;;1.90;;
69256;SDS011;56376;53.356;-1.748;2023-01-08T04:19:39;4.00;;;1.97;;
69256;SDS011;56376;53.356;-1.748;2023-01-08T04:22:05;5.93;;;2.17;;
69256;SDS011;56376;53.356;-1.748;2023-01-08T04:24:30;3.03;;;1.93;;
69256;SDS011;56376;53.356;-1.748;2023-01-08T04:26:56;5.80;;;2.07;;
69256;SDS011;56376;53.356;-1.748;2023-01-08T04:29:21;4.37;;;1.60;;
69256;SDS011;56376;53.356;-1.748;2023-01-08T04:31:46;5.63;;;2.20;;
69256;SDS011;56376;53.356;-1.748;2023-01-08T04:34:12;7.80;;;2.60;;
69256;SDS011;56376;53.356;-1.748;2023-01-08T04:36:37;5.50;;;1.87;;
69256;SDS011;56376;53.356;-1.748;2023-01-08T04:39:03;6.60;;;2.27;;
69256;SDS011;56376;53.356;-1.748;2023-01-08T04:41:28;6.20;;;1.93;;
69256;SDS011;56376;53.356;-1.748;2023-01-08T04:43:54;6.90;;;2.37;;
69256;SDS011;56376;53.356;-1.748;2023-01-08T04:46:19;7.27;;;2.57;;
69256;SDS011;56376;53.356;-1.748;2023-01-08T04:48:44;4.00;;;1.60;;
69256;SDS011;56376;53.356;-1.748;2023-01-08T04:51:10;8.87;;;1.73;;
69256;SDS011;56376;53.356;-1.748;2023-01-08T04:53:36;6.70;;;2.10;;
69256;SDS011;56376;53.356;-1.748;2023-01-08T04:56:07;5.67;;;2.23;;
69256;SDS011;56376;53.356;-1.748;2023-01-08T04:58:34;6.80;;;2.50;;
69256;SDS011;56376;53.356;-1.748;2023-01-08T05:01:00;4.33;;;1.33;;
69256;SDS011;56376;53.356;-1.748;2023-01-08T05:03:26;7.67;;;2.17;;
69256;SDS011;56376;53.356;-1.748;2023-01-08T05:05:51;4.37;;;1.40;;
69256;SDS011;56376;53.356;-1.748;2023-01-08T05:08:16;4.17;;;1.47;;
69256;SDS011;56376;53.356;-1.748;2023-01-08T05:10:42;3.87;;;1.40;;
69256;SDS011;56376;53.356;-1.748;2023-01-08T05:13:07;4.53;;;1.70;;
69256;SDS011;56376;53.356;-1.748;2023-01-08T05:15:33;3.83;;;1.67;;
69256;SDS011;56376;53.356;-1.748;2023-01-08T05:17:59;4.17;;;1.30;;
69256;SDS011;56376;53.356;-1.748;2023-01-08T05:20:25;4.27;;;1.60;;
69256;SDS011;56376;53.356;-1.748;2023-01-08T05:22:51;2.77;;;1.00;;
69256;SDS011;56376;53.356;-1.748;2023-01-08T05:25:16;3.87;;;1.07;;
69256;SDS011;56376;53.356;-1.748;2023-01-08T05:27:42;3.33;;;1.20;;
69256;SDS011;56376;53.356;-1.748;2023-01-08T05:30:07;3.30;;;1.23;;
69256;SDS011;56376;53.356;-1.748;2023-01-08T05:32:33;1.90;;;1.00;;
69256;SDS011;56376;53.356;-1.748;2023-01-08T05:34:58;4.53;;;1.47;;
69256;SDS011;56376;53.356;-1.748;2023-01-08T05:37:24;3.47;;;1.23;;
69256;SDS011;56376;53.356;-1.748;2023-01-08T05:39:49;2.93;;;1.57;;
69256;SDS011;56376;53.356;-1.748;2023-01-08T05:42:14;3.90;;;1.30;;
69256;SDS011;56376;53.356;-1.748;2023-01-08T05:44:40;4.50;;;2.07;;
69256;SDS011;56376;53.356;-1.748;2023-01-08T05:47:05;3.47;;;1.30;;
69256;SDS011;56376;53.356;-1.748;2023-01-08T05:49:30;3.07;;;1.60;;
69256;SDS011;56376;53.356;-1.748;2023-01-08T05:51:56;3.83;;;1.10;;
69256;SDS011;56376;53.356;-1.748;2023-01-08T05:54:21;2.23;;;0.90;;
69256;SDS011;56376;53.356;-1.748;2023-01-08T05:56:47;2.37;;;0.90;;
69256;SDS011;56376;53.356;-1.748;2023-01-08T05:59:12;2.00;;;1.00;;
69256;SDS011;56376;53.356;-1.748;2023-01-08T06:01:38;1.23;;;0.63;;
69256;SDS011;56376;53.356;-1.748;2023-01-08T06:04:03;1.57;;;0.60;;
69256;SDS011;56376;53.356;-1.748;2023-01-08T06:06:29;1.73;;;0.90;;
69256;SDS011;56376;53.356;-1.748;2023-01-08T06:08:54;1.87;;;0.60;;
69256;SDS011;56376;53.356;-1.748;2023-01-08T06:11:20;0.50;;;0.50;;
69256;SDS011;56376;53.356;-1.748;2023-01-08T06:13:45;0.97;;;0.50;;
69256;SDS011;56376;53.356;-1.748;2023-01-08T06:16:11;2.17;;;0.50;;
69256;SDS011;56376;53.356;-1.748;2023-01-08T06:18:37;0.97;;;0.70;;
69256;SDS011;56376;53.356;-1.748;2023-01-08T06:21:02;0.43;;;0.30;;
69256;SDS011;56376;53.356;-1.748;2023-01-08T06:23:29;1.50;;;0.57;;
69256;SDS011;56376;53.356;-1.748;2023-01-08T06:25:55;0.77;;;0.60;;
69256;SDS011;56376;53.356;-1.748;2023-01-08T06:28:21;2.13;;;0.53;;
69256;SDS011;56376;53.356;-1.748;2023-01-08T06:30:47;1.40;;;0.40;;
69256;SDS011;56376;53.356;-1.748;2023-01-08T06:33:13;0.77;;;0.40;;
69256;SDS011;56376;53.356;-1.748;2023-01-08T06:35:39;0.87;;;0.37;;
69256;SDS011;56376;53.356;-1.748;2023-01-08T06:38:04;0.13;;;0.13;;
69256;SDS011;56376;53.356;-1.748;2023-01-08T06:40:30;0.57;;;0.23;;
69256;SDS011;56376;53.356;-1.748;2023-01-08T06:42:55;0.40;;;0.40;;
69256;SDS011;56376;53.356;-1.748;2023-01-08T06:45:25;0.73;;;0.30;;
69256;SDS011;56376;53.356;-1.748;2023-01-08T06:47:51;0.30;;;0.30;;
69256;SDS011;56376;53.356;-1.748;2023-01-08T06:50:16;1.03;;;0.30;;
69256;SDS011;56376;53.356;-1.748;2023-01-08T06:52:42;0.40;;;0.40;;
69256;SDS011;56376;53.356;-1.748;2023-01-08T06:55:07;0.50;;;0.37;;
69256;SDS011;56376;53.356;-1.748;2023-01-08T06:57:33;0.53;;;0.30;;
69256;SDS011;56376;53.356;-1.748;2023-01-08T06:59:59;0.43;;;0.40;;
69256;SDS011;56376;53.356;-1.748;2023-01-08T07:02:24;0.20;;;0.20;;
69256;SDS011;56376;53.356;-1.748;2023-01-08T07:04:49;0.57;;;0.33;;
69256;SDS011;56376;53.356;-1.748;2023-01-08T07:07:15;0.43;;;0.33;;
69256;SDS011;56376;53.356;-1.748;2023-01-08T07:09:41;0.43;;;0.40;;
69256;SDS011;56376;53.356;-1.748;2023-01-08T07:12:10;0.20;;;0.20;;
69256;SDS011;56376;53.356;-1.748;2023-01-08T07:14:36;0.87;;;0.50;;
69256;SDS011;56376;53.356;-1.748;2023-01-08T07:17:01;0.80;;;0.40;;
69256;SDS011;56376;53.356;-1.748;2023-01-08T07:19:27;0.47;;;0.30;;
69256;SDS011;56376;53.356;-1.748;2023-01-08T07:21:52;1.87;;;0.60;;
69256;SDS011;56376;53.356;-1.748;2023-01-08T07:24:17;0.53;;;0.37;;
69256;SDS011;56376;53.356;-1.748;2023-01-08T07:26:43;0.80;;;0.37;;
69256;SDS011;56376;53.356;-1.748;2023-01-08T07:29:08;0.83;;;0.33;;
69256;SDS011;56376;53.356;-1.748;2023-01-08T07:31:33;0.37;;;0.30;;
69256;SDS011;56376;53.356;-1.748;2023-01-08T07:33:59;0.23;;;0.10;;
69256;SDS011;56376;53.356;-1.748;2023-01-08T07:36:24;0.30;;;0.30;;
69256;SDS011;56376;53.356;-1.748;2023-01-08T07:38:50;0.40;;;0.30;;
69256;SDS011;56376;53.356;-1.748;2023-01-08T07:41:16;0.77;;;0.40;;
69256;SDS011;56376;53.356;-1.748;2023-01-08T07:43:42;0.20;;;0.20;;
69256;SDS011;56376;53.356;-1.748;2023-01-08T07:46:07;0.90;;;0.73;;
69256;SDS011;56376;53.356;-1.748;2023-01-08T07:48:33;0.40;;;0.20;;
69256;SDS011;56376;53.356;-1.748;2023-01-08T07:51:02;1.17;;;0.40;;
69256;SDS011;56376;53.356;-1.748;2023-01-08T07:53:29;0.20;;;0.20;;
69256;SDS011;56376;53.356;-1.748;2023-01-08T07:56:00;0.60;;;0.30;;
69256;SDS011;56376;53.356;-1.748;2023-01-08T07:58:27;0.40;;;0.40;;
69256;SDS011;56376;53.356;-1.748;2023-01-08T08:00:52;0.30;;;0.30;;
69256;SDS011;56376;53.356;-1.748;2023-01-08T08:03:18;0.30;;;0.30;;
69256;SDS011;56376;53.356;-1.748;2023-01-08T08:05:43;0.40;;;0.40;;
69256;SDS011;56376;53.356;-1.748;2023-01-08T08:08:09;0.20;;;0.20;;
69256;SDS011;56376;53.356;-1.748;2023-01-08T08:10:36;0.20;;;0.20;;
69256;SDS011;56376;53.356;-1.748;2023-01-08T08:13:02;0.73;;;0.30;;
69256;SDS011;56376;53.356;-1.748;2023-01-08T08:15:27;1.20;;;0.37;;
69256;SDS011;56376;53.356;-1.748;2023-01-08T08:17:56;0.30;;;0.30;;
69256;SDS011;56376;53.356;-1.748;2023-01-08T08:20:21;0.47;;;0.30;;
69256;SDS011;56376;53.356;-1.748;2023-01-08T08:22:47;0.30;;;0.30;;
69256;SDS011;56376;53.356;-1.748;2023-01-08T08:25:12;0.30;;;0.30;;
69256;SDS011;56376;53.356;-1.748;2023-01-08T08:27:39;1.77;;;0.60;;
69256;SDS011;56376;53.356;-1.748;2023-01-08T08:30:06;0.60;;;0.60;;
69256;SDS011;56376;53.356;-1.748;2023-01-08T08:32:32;1.63;;;1.23;;
69256;SDS011;56376;53.356;-1.748;2023-01-08T08:34:57;4.17;;;2.30;;
69256;SDS011;56376;53.356;-1.748;2023-01-08T08:37:23;3.60;;;2.13;;
69256;SDS011;56376;53.356;-1.748;2023-01-08T08:39:49;3.47;;;2.03;;
69256;SDS011;56376;53.356;-1.748;2023-01-08T08:42:14;4.60;;;2.20;;
69256;SDS011;56376;53.356;-1.748;2023-01-08T08:44:39;3.47;;;2.10;;
69256;SDS011;56376;53.356;-1.748;2023-01-08T08:47:05;4.37;;;2.60;;
69256;SDS011;56376;53.356;-1.748;2023-01-08T08:49:32;2.43;;;2.20;;
69256;SDS011;56376;53.356;-1.748;2023-01-08T08:51:57;2.37;;;2.17;;
69256;SDS011;56376;53.356;-1.748;2023-01-08T08:54:23;2.83;;;2.40;;
69256;SDS011;56376;53.356;-1.748;2023-01-08T08:56:48;3.30;;;1.93;;
69256;SDS011;56376;53.356;-1.748;2023-01-08T08:59:13;2.93;;;1.90;;
69256;SDS011;56376;53.356;-1.748;2023-01-08T09:01:39;2.90;;;1.90;;
69256;SDS011;56376;53.356;-1.748;2023-01-08T09:04:04;3.23;;;2.30;;
69256;SDS011;56376;53.356;-1.748;2023-01-08T09:06:29;3.17;;;2.33;;
69256;SDS011;56376;53.356;-1.748;2023-01-08T09:08:55;4.53;;;2.63;;
69256;SDS011;56376;53.356;-1.748;2023-01-08T09:11:21;5.70;;;3.20;;
69256;SDS011;56376;53.356;-1.748;2023-01-08T09:13:46;4.73;;;3.60;;
69256;SDS011;56376;53.356;-1.748;2023-01-08T09:16:12;5.60;;;3.87;;
69256;SDS011;56376;53.356;-1.748;2023-01-08T09:18:38;8.07;;;4.50;;
69256;SDS011;56376;53.356;-1.748;2023-01-08T09:21:06;8.70;;;5.10;;
69256;SDS011;56376;53.356;-1.748;2023-01-08T09:23:35;9.47;;;4.97;;
69256;SDS011;56376;53.356;-1.748;2023-01-08T09:26:03;7.73;;;4.57;;
69256;SDS011;56376;53.356;-1.748;2023-01-08T09:28:29;5.83;;;3.60;;
69256;SDS011;56376;53.356;-1.748;2023-01-08T09:30:55;6.43;;;3.20;;
69256;SDS011;56376;53.356;-1.748;2023-01-08T09:33:20;5.90;;;3.80;;
69256;SDS011;56376;53.356;-1.748;2023-01-08T09:35:46;7.97;;;3.93;;
69256;SDS011;56376;53.356;-1.748;2023-01-08T09:38:11;5.13;;;2.83;;
69256;SDS011;56376;53.356;-1.748;2023-01-08T09:40:38;6.97;;;3.40;;
69256;SDS011;56376;53.356;-1.748;2023-01-08T09:43:18;4.87;;;3.57;;
69256;SDS011;56376;53.356;-1.748;2023-01-08T09:45:48;4.57;;;3.00;;
69256;SDS011;56376;53.356;-1.748;2023-01-08T09:48:17;8.63;;;5.47;;
69256;SDS011;56376;53.356;-1.748;2023-01-08T09:50:46;5.30;;;3.63;;
69256;SDS011;56376;53.356;-1.748;2023-01-08T09:53:13;6.93;;;2.73;;
69256;SDS011;56376;53.356;-1.748;2023-01-08T09:55:40;5.37;;;2.83;;
69256;SDS011;56376;53.356;-1.748;2023-01-08T10:00:54;3.77;;;2.20;;
69256;SDS011;56376;53.356;-1.748;2023-01-08T10:03:21;5.40;;;1.87;;
69256;SDS011;56376;53.356;-1.748;2023-01-08T10:05:51;3.07;;;1.93;;
69256;SDS011;56376;53.356;-1.748;2023-01-08T10:08:17;3.17;;;1.80;;
69256;SDS011;56376;53.356;-1.748;2023-01-08T10:10:42;3.97;;;2.17;;
69256;SDS011;56376;53.356;-1.748;2023-01-08T10:13:09;2.83;;;1.60;;
69256;SDS011;56376;53.356;-1.748;2023-01-08T10:15:35;3.10;;;1.57;;
69256;SDS011;56376;53.356;-1.748;2023-01-08T10:18:02;4.67;;;1.47;;
69256;SDS011;56376;53.356;-1.748;2023-01-08T10:20:36;5.10;;;2.43;;
69256;SDS011;56376;53.356;-1.748;2023-01-08T10:23:13;3.70;;;2.10;;
69256;SDS011;56376;53.356;-1.748;2023-01-08T10:28:18;10.55;;;3.42;;
69256;SDS011;56376;53.356;-1.748;2023-01-08T10:30:46;4.70;;;2.53;;
69256;SDS011;56376;53.356;-1.748;2023-01-08T10:33:25;4.37;;;1.80;;
69256;SDS011;56376;53.356;-1.748;2023-01-08T10:38:35;11.27;;;6.53;;
69256;SDS011;56376;53.356;-1.748;2023-01-08T10:41:08;10.87;;;5.57;;
69256;SDS011;56376;53.356;-1.748;2023-01-08T10:43:40;6.23;;;4.27;;
69256;SDS011;56376;53.356;-1.748;2023-01-08T10:46:22;7.63;;;2.97;;
69256;SDS011;56376;53.356;-1.748;2023-01-08T10:48:52;3.77;;;2.90;;
69256;SDS011;56376;53.356;-1.748;2023-01-08T10:51:22;2.67;;;2.40;;
69256;SDS011;56376;53.356;-1.748;2023-01-08T10:53:48;5.27;;;1.83;;
69256;SDS011;56376;53.356;-1.748;2023-01-08T10:56:18;7.83;;;2.27;;
69256;SDS011;56376;53.356;-1.748;2023-01-08T10:58:48;2.83;;;1.30;;
69256;SDS011;56376;53.356;-1.748;2023-01-08T11:01:21;4.17;;;1.63;;
69256;SDS011;56376;53.356;-1.748;2023-01-08T11:03:52;5.13;;;1.70;;
69256;SDS011;56376;53.356;-1.748;2023-01-08T11:06:30;10.87;;;3.17;;
69256;SDS011;56376;53.356;-1.748;2023-01-08T11:09:05;7.13;;;2.10;;
69256;SDS011;56376;53.356;-1.748;2023-01-08T11:11:49;5.10;;;2.20;;
69256;SDS011;56376;53.356;-1.748;2023-01-08T11:16:51;5.57;;;1.80;;
69256;SDS011;56376;53.356;-1.748;2023-01-08T11:19:18;6.00;;;1.97;;
69256;SDS011;56376;53.356;-1.748;2023-01-08T11:21:55;10.50;;;2.67;;
69256;SDS011;56376;53.356;-1.748;2023-01-08T11:24:34;9.53;;;3.07;;
69256;SDS011;56376;53.356;-1.748;2023-01-08T11:27:10;8.23;;;4.20;;
69256;SDS011;56376;53.356;-1.748;2023-01-08T11:38:11;5.97;;;2.00;;
69256;SDS011;56376;53.356;-1.748;2023-01-08T11:49:23;3.63;;;1.73;;
69256;SDS011;56376;53.356;-1.748;2023-01-08T12:02:53;5.67;;;2.23;;
69256;SDS011;56376;53.356;-1.748;2023-01-08T12:05:31;6.50;;;2.30;;
69256;SDS011;56376;53.356;-1.748;2023-01-08T12:08:18;9.20;;;2.45;;
69256;SDS011;56376;53.356;-1.748;2023-01-08T12:19:22;5.40;;;2.00;;
69256;SDS011;56376;53.356;-1.748;2023-01-08T12:27:34;10.53;;;3.77;;
69256;SDS011;56376;53.356;-1.748;2023-01-08T12:35:32;9.27;;;4.30;;
69256;SDS011;56376;53.356;-1.748;2023-01-08T12:38:04;6.87;;;3.83;;
69256;SDS011;56376;53.356;-1.748;2023-01-08T12:40:44;13.20;;;4.10;;
69256;SDS011;56376;53.356;-1.748;2023-01-08T12:43:23;6.80;;;3.70;;
69256;SDS011;56376;53.356;-1.748;2023-01-08T12:45:54;10.90;;;3.67;;
69256;SDS011;56376;53.356;-1.748;2023-01-08T12:48:24;5.07;;;2.97;;
69256;SDS011;56376;53.356;-1.748;2023-01-08T12:53:25;8.60;;;2.90;;
69256;SDS011;56376;53.356;-1.748;2023-01-08T12:56:08;3.57;;;1.40;;
69256;SDS011;56376;53.356;-1.748;2023-01-08T13:04:26;3.23;;;0.97;;
69256;SDS011;56376;53.356;-1.748;2023-01-08T13:07:02;1.37;;;0.90;;
69256;SDS011;56376;53.356;-1.748;2023-01-08T13:09:28;1.83;;;0.90;;
69256;SDS011;56376;53.356;-1.748;2023-01-08T13:11:56;3.53;;;1.10;;
69256;SDS011;56376;53.356;-1.748;2023-01-08T13:14:23;3.13;;;0.83;;
69256;SDS011;56376;53.356;-1.748;2023-01-08T13:16:59;2.20;;;1.27;;
69256;SDS011;56376;53.356;-1.748;2023-01-08T13:19:38;2.37;;;1.40;;
69256;SDS011;56376;53.356;-1.748;2023-01-08T13:22:15;1.73;;;0.80;;
69256;SDS011;56376;53.356;-1.748;2023-01-08T13:24:48;2.87;;;1.17;;
69256;SDS011;56376;53.356;-1.748;2023-01-08T13:29:42;1.70;;;0.90;;
69256;SDS011;56376;53.356;-1.748;2023-01-08T13:32:28;1.70;;;1.00;;
69256;SDS011;56376;53.356;-1.748;2023-01-08T13:37:47;3.20;;;1.30;;
69256;SDS011;56376;53.356;-1.748;2023-01-08T13:43:00;1.97;;;0.97;;
69256;SDS011;56376;53.356;-1.748;2023-01-08T13:45:26;3.00;;;1.20;;
69256;SDS011;56376;53.356;-1.748;2023-01-08T13:47:53;2.23;;;1.10;;
69256;SDS011;56376;53.356;-1.748;2023-01-08T13:50:20;2.10;;;1.10;;
69256;SDS011;56376;53.356;-1.748;2023-01-08T13:52:59;1.40;;;0.63;;
69256;SDS011;56376;53.356;-1.748;2023-01-08T13:57:54;0.53;;;0.50;;
69256;SDS011;56376;53.356;-1.748;2023-01-08T14:00:24;1.13;;;0.90;;
69256;SDS011;56376;53.356;-1.748;2023-01-08T14:02:54;2.40;;;0.90;;
69256;SDS011;56376;53.356;-1.748;2023-01-08T14:05:27;1.33;;;0.73;;
69256;SDS011;56376;53.356;-1.748;2023-01-08T14:07:54;1.40;;;0.80;;
69256;SDS011;56376;53.356;-1.748;2023-01-08T14:10:20;0.90;;;0.70;;
69256;SDS011;56376;53.356;-1.748;2023-01-08T14:12:47;0.67;;;0.67;;
69256;SDS011;56376;53.356;-1.748;2023-01-08T14:15:31;1.33;;;0.60;;
69256;SDS011;56376;53.356;-1.748;2023-01-08T14:17:59;0.68;;;0.52;;
69256;SDS011;56376;53.356;-1.748;2023-01-08T14:20:28;1.57;;;0.70;;
69256;SDS011;56376;53.356;-1.748;2023-01-08T14:22:59;1.20;;;0.90;;
69256;SDS011;56376;53.356;-1.748;2023-01-08T14:25:26;2.00;;;1.20;;
69256;SDS011;56376;53.356;-1.748;2023-01-08T14:27:56;1.70;;;0.60;;
69256;SDS011;56376;53.356;-1.748;2023-01-08T14:30:26;0.85;;;0.55;;
69256;SDS011;56376;53.356;-1.748;2023-01-08T14:32:52;0.97;;;0.47;;
69256;SDS011;56376;53.356;-1.748;2023-01-08T14:35:20;0.73;;;0.50;;
69256;SDS011;56376;53.356;-1.748;2023-01-08T14:37:51;0.70;;;0.60;;
69256;SDS011;56376;53.356;-1.748;2023-01-08T14:40:23;0.57;;;0.57;;
69256;SDS011;56376;53.356;-1.748;2023-01-08T14:42:53;0.50;;;0.50;;
69256;SDS011;56376;53.356;-1.748;2023-01-08T14:45:23;0.40;;;0.40;;
69256;SDS011;56376;53.356;-1.748;2023-01-08T14:47:52;1.70;;;0.50;;
69256;SDS011;56376;53.356;-1.748;2023-01-08T14:50:28;0.67;;;0.60;;
69256;SDS011;56376;53.356;-1.748;2023-01-08T14:52:58;0.70;;;0.70;;
69256;SDS011;56376;53.356;-1.748;2023-01-08T14:55:30;1.70;;;0.70;;
69256;SDS011;56376;53.356;-1.748;2023-01-08T14:57:56;0.50;;;0.50;;
69256;SDS011;56376;53.356;-1.748;2023-01-08T15:00:31;1.40;;;0.83;;
69256;SDS011;56376;53.356;-1.748;2023-01-08T15:02:56;0.93;;;0.70;;
69256;SDS011;56376;53.356;-1.748;2023-01-08T15:05:26;1.07;;;0.60;;
69256;SDS011;56376;53.356;-1.748;2023-01-08T15:10:43;1.57;;;0.70;;
69256;SDS011;56376;53.356;-1.748;2023-01-08T15:13:24;1.57;;;0.97;;
69256;SDS011;56376;53.356;-1.748;2023-01-08T15:15:55;5.30;;;2.13;;
69256;SDS011;56376;53.356;-1.748;2023-01-08T15:18:24;1.13;;;0.90;;
69256;SDS011;56376;53.356;-1.748;2023-01-08T15:20:50;1.90;;;0.70;;
69256;SDS011;56376;53.356;-1.748;2023-01-08T15:23:23;0.90;;;0.73;;
69256;SDS011;56376;53.356;-1.748;2023-01-08T15:25:51;1.63;;;0.70;;
69256;SDS011;56376;53.356;-1.748;2023-01-08T15:28:18;1.17;;;0.87;;
69256;SDS011;56376;53.356;-1.748;2023-01-08T15:30:45;0.50;;;0.43;;
69256;SDS011;56376;53.356;-1.748;2023-01-08T15:33:20;1.13;;;0.73;;
69256;SDS011;56376;53.356;-1.748;2023-01-08T15:35:48;1.13;;;0.77;;
69256;SDS011;56376;53.356;-1.748;2023-01-08T15:38:14;0.60;;;0.60;;
69256;SDS011;56376;53.356;-1.748;2023-01-08T15:40:40;1.00;;;0.60;;
69256;SDS011;56376;53.356;-1.748;2023-01-08T15:43:10;0.63;;;0.60;;
69256;SDS011;56376;53.356;-1.748;2023-01-08T15:45:42;0.40;;;0.40;;
69256;SDS011;56376;53.356;-1.748;2023-01-08T15:48:10;0.67;;;0.50;;
69256;SDS011;56376;53.356;-1.748;2023-01-08T15:50:37;0.87;;;0.80;;
69256;SDS011;56376;53.356;-1.748;2023-01-08T15:53:05;0.57;;;0.50;;
69256;SDS011;56376;53.356;-1.748;2023-01-08T15:55:34;0.50;;;0.50;;
69256;SDS011;56376;53.356;-1.748;2023-01-08T15:58:00;0.70;;;0.60;;
69256;SDS011;56376;53.356;-1.748;2023-01-08T16:00:26;0.67;;;0.50;;
69256;SDS011;56376;53.356;-1.748;2023-01-08T16:02:52;0.60;;;0.50;;
69256;SDS011;56376;53.356;-1.748;2023-01-08T16:05:19;1.00;;;0.60;;
69256;SDS011;56376;53.356;-1.748;2023-01-08T16:07:46;1.87;;;1.13;;
69256;SDS011;56376;53.356;-1.748;2023-01-08T16:10:12;0.60;;;0.60;;
69256;SDS011;56376;53.356;-1.748;2023-01-08T16:12:38;0.93;;;0.70;;
69256;SDS011;56376;53.356;-1.748;2023-01-08T16:15:04;0.53;;;0.53;;